Time,TemperatureF,DewpointF,PressureIn,WindDirection,WindDirectionDegrees,WindSpeedMPH,WindSpeedGustMPH,Humidity,HourlyPrecipIn,Conditions,Clouds,dailyrainin,SoftwareType,DateUTC
2013-06-25 00:01:00,69.4,64.7,28.70,NE,54,0.0,0.0,85,0.00,,FEW100,0.00,VWS V14.00,2013-06-25 05:01:00,
2013-06-25 00:06:00,69.6,64.9,28.70,ENE,68,0.0,2.7,85,0.00,,FEW100,0.00,VWS V14.00,2013-06-25 05:06:00,
2013-06-25 00:11:00,69.6,65.2,28.67,ENE,68,0.0,0.0,86,0.00,,FEW100,0.00,VWS V14.00,2013-06-25 05:11:00,
2013-06-25 00:16:00,69.8,65.1,28.67,ENE,68,0.0,0.0,85,0.00,,FEW100,0.00,VWS V14.00,2013-06-25 05:16:00,
2013-06-25 00:21:00,69.8,65.1,28.67,East,82,0.0,0.0,85,0.00,,FEW100,0.00,VWS V14.00,2013-06-25 05:21:00,
2013-06-25 00:26:00,69.8,65.4,28.67,East,82,0.0,0.0,86,0.00,,FEW100,0.00,VWS V14.00,2013-06-25 05:26:00,
2013-06-25 00:31:00,69.8,65.4,28.67,East,82,0.0,0.0,86,0.00,,FEW100,0.00,VWS V14.00,2013-06-25 05:31:00,
2013-06-25 00:36:00,69.8,65.4,28.67,East,82,0.0,0.0,86,0.00,,FEW100,0.00,VWS V14.00,2013-06-25 05:36:00,
2013-06-25 00:41:00,70.0,65.6,28.67,East,82,0.0,0.0,86,0.00,,FEW100,0.00,VWS V14.00,2013-06-25 05:41:00,
2013-06-25 00:46:00,70.0,65.6,28.67,East,82,0.0,0.0,86,0.00,,FEW100,0.00,VWS V14.00,2013-06-25 05:46:00,
2013-06-25 00:51:00,69.8,65.4,28.67,East,82,0.0,0.0,86,0.00,,FEW100,0.00,VWS V14.00,2013-06-25 05:51:00,
2013-06-25 00:56:00,69.8,65.4,28.67,East,82,0.0,0.0,86,0.00,,FEW100,0.00,VWS V14.00,2013-06-25 05:56:00,
2013-06-25 01:01:00,69.6,65.2,28.67,East,82,0.0,0.0,86,0.00,,BKN250,0.00,VWS V14.00,2013-06-25 06:01:00,
2013-06-25 01:06:00,69.6,65.6,28.67,East,82,0.0,0.0,87,0.00,,BKN250,0.00,VWS V14.00,2013-06-25 06:06:00,
2013-06-25 01:11:00,69.6,65.6,28.67,East,82,0.0,0.0,87,0.00,,BKN250,0.00,VWS V14.00,2013-06-25 06:11:00,
2013-06-25 01:16:00,69.6,65.6,28.67,East,82,0.0,0.0,87,0.00,,BKN250,0.00,VWS V14.00,2013-06-25 06:16:00,
2013-06-25 01:21:00,69.6,65.6,28.67,East,82,0.0,0.0,87,0.00,,BKN250,0.00,VWS V14.00,2013-06-25 06:21:00,
2013-06-25 01:26:00,69.6,65.6,28.67,East,82,0.0,0.0,87,0.00,,BKN250,0.00,VWS V14.00,2013-06-25 06:26:00,
2013-06-25 01:31:00,69.8,65.8,28.67,East,82,0.0,0.0,87,0.00,,BKN250,0.00,VWS V14.00,2013-06-25 06:31:00,
2013-06-25 01:36:00,70.0,65.9,28.67,East,82,0.0,0.0,87,0.00,,BKN250,0.00,VWS V14.00,2013-06-25 06:36:00,
2013-06-25 01:41:00,70.0,65.9,28.67,East,82,0.0,0.0,87,0.00,,BKN250,0.00,VWS V14.00,2013-06-25 06:41:00,
2013-06-25 01:46:00,70.0,65.9,28.67,East,82,0.0,0.0,87,0.00,,BKN250,0.00,VWS V14.00,2013-06-25 06:46:00,
2013-06-25 01:51:00,70.0,65.9,28.67,East,82,0.0,0.0,87,0.00,,BKN250,0.00,VWS V14.00,2013-06-25 06:51:00,
2013-06-25 01:56:00,70.0,65.9,28.67,East,82,0.0,0.0,87,0.00,,BKN250,0.00,VWS V14.00,2013-06-25 06:56:00,
2013-06-25 02:01:00,70.0,65.9,28.67,East,82,0.0,0.0,87,0.00,,BKN250,0.00,VWS V14.00,2013-06-25 07:01:00,
2013-06-25 02:06:00,70.0,65.9,28.67,East,82,0.0,0.0,87,0.00,,BKN250,0.00,VWS V14.00,2013-06-25 07:06:00,
2013-06-25 02:11:00,69.8,65.8,28.67,East,82,0.0,0.0,87,0.00,,BKN250,0.00,VWS V14.00,2013-06-25 07:11:00,
2013-06-25 02:16:00,69.8,65.8,28.67,East,82,0.0,0.0,87,0.00,,BKN250,0.00,VWS V14.00,2013-06-25 07:16:00,
2013-06-25 02:21:00,69.8,65.8,28.67,East,82,0.0,0.0,87,0.00,,BKN250,0.00,VWS V14.00,2013-06-25 07:21:00,
2013-06-25 02:26:00,70.0,65.9,28.64,East,82,0.0,0.0,87,0.00,,BKN250,0.00,VWS V14.00,2013-06-25 07:26:00,
2013-06-25 02:31:00,69.8,65.8,28.64,East,82,0.0,0.0,87,0.00,,BKN250,0.00,VWS V14.00,2013-06-25 07:31:00,
2013-06-25 02:36:00,69.8,65.8,28.64,East,82,0.0,0.0,87,0.00,,BKN250,0.00,VWS V14.00,2013-06-25 07:36:00,
2013-06-25 02:41:00,69.8,65.8,28.64,East,82,0.0,0.0,87,0.00,,BKN250,0.00,VWS V14.00,2013-06-25 07:41:00,
2013-06-25 02:46:00,69.8,65.8,28.64,East,82,0.0,0.0,87,0.00,,BKN250,0.00,VWS V14.00,2013-06-25 07:46:00,
2013-06-25 02:51:00,69.6,65.9,28.64,East,82,0.0,0.0,88,0.00,,BKN250,0.00,VWS V14.00,2013-06-25 07:51:00,
2013-06-25 02:56:00,69.6,65.9,28.64,East,82,0.0,0.0,88,0.00,,BKN250,0.00,VWS V14.00,2013-06-25 07:56:00,
2013-06-25 03:01:00,69.4,65.7,28.64,East,82,0.0,0.0,88,0.00,,OVC250,0.00,VWS V14.00,2013-06-25 08:01:00,
2013-06-25 03:06:00,69.4,65.7,28.64,East,82,0.0,0.0,88,0.00,,OVC250,0.00,VWS V14.00,2013-06-25 08:06:00,
2013-06-25 03:11:00,69.4,65.7,28.64,East,82,0.0,0.0,88,0.00,,OVC250,0.00,VWS V14.00,2013-06-25 08:11:00,
2013-06-25 03:16:00,69.4,65.7,28.64,East,82,0.0,0.0,88,0.00,,OVC250,0.00,VWS V14.00,2013-06-25 08:16:00,
2013-06-25 03:21:00,69.4,65.7,28.64,East,82,0.0,0.0,88,0.00,,OVC250,0.00,VWS V14.00,2013-06-25 08:21:00,
2013-06-25 03:26:00,69.4,66.1,28.64,East,82,0.0,0.0,89,0.00,,OVC250,0.00,VWS V14.00,2013-06-25 08:26:00,
2013-06-25 03:31:00,69.6,66.2,28.64,East,82,0.0,0.0,89,0.00,,OVC250,0.00,VWS V14.00,2013-06-25 08:31:00,
2013-06-25 03:36:00,70.0,66.3,28.64,East,82,0.0,0.0,88,0.00,,OVC250,0.00,VWS V14.00,2013-06-25 08:36:00,
2013-06-25 03:41:00,70.3,66.9,28.67,East,82,0.0,0.0,89,0.00,,OVC250,0.00,VWS V14.00,2013-06-25 08:41:00,
2013-06-25 03:46:00,70.5,67.1,28.67,East,82,0.0,0.0,89,0.00,,OVC250,0.00,VWS V14.00,2013-06-25 08:46:00,
2013-06-25 03:51:00,70.5,67.1,28.67,East,92,0.0,0.0,89,0.00,,OVC250,0.00,VWS V14.00,2013-06-25 08:51:00,
2013-06-25 03:56:00,70.9,67.5,28.67,WSW,257,0.0,3.6,89,0.00,,,0.00,VWS V14.00,2013-06-25 08:56:00,
2013-06-25 04:01:00,70.7,67.3,28.67,WSW,257,0.0,0.0,89,0.00,,,0.00,VWS V14.00,2013-06-25 09:01:00,
2013-06-25 04:06:00,70.7,67.3,28.67,WNW,290,0.0,0.0,89,0.00,,,0.00,VWS V14.00,2013-06-25 09:06:00,
2013-06-25 04:11:00,70.7,67.3,28.67,WNW,290,0.0,0.0,89,0.00,,,0.00,VWS V14.00,2013-06-25 09:11:00,
2013-06-25 04:16:00,70.7,67.3,28.67,WNW,290,0.0,0.0,89,0.00,,,0.00,VWS V14.00,2013-06-25 09:16:00,
2013-06-25 04:21:00,70.7,67.3,28.67,WNW,290,0.0,0.0,89,0.00,,,0.00,VWS V14.00,2013-06-25 09:21:00,
2013-06-25 04:26:00,70.5,67.1,28.67,North,7,0.0,0.0,89,0.00,,,0.00,VWS V14.00,2013-06-25 09:26:00,
2013-06-25 04:31:00,70.5,67.1,28.67,North,7,0.0,0.0,89,0.00,,OVC150,0.00,VWS V14.00,2013-06-25 09:31:00,
2013-06-25 04:36:00,70.5,67.1,28.67,North,7,0.0,0.0,89,0.00,,OVC150,0.00,VWS V14.00,2013-06-25 09:36:00,
2013-06-25 04:41:00,70.2,66.8,28.64,North,7,0.0,0.0,89,0.00,,OVC150,0.00,VWS V14.00,2013-06-25 09:41:00,
2013-06-25 04:46:00,70.2,66.8,28.64,North,7,0.0,0.0,89,0.00,,OVC150,0.00,VWS V14.00,2013-06-25 09:46:00,
2013-06-25 04:51:00,70.2,66.8,28.64,North,7,0.0,0.0,89,0.00,,OVC150,0.00,VWS V14.00,2013-06-25 09:51:00,
2013-06-25 04:56:00,70.0,66.6,28.64,North,7,0.0,0.0,89,0.00,,OVC150,0.00,VWS V14.00,2013-06-25 09:56:00,
2013-06-25 05:01:00,70.2,66.8,28.64,North,7,0.0,0.0,89,0.00,,OVC250,0.00,VWS V14.00,2013-06-25 10:01:00,
2013-06-25 05:06:00,70.3,66.9,28.64,North,7,0.0,0.0,89,0.00,,OVC250,0.00,VWS V14.00,2013-06-25 10:06:00,
2013-06-25 05:11:00,70.2,66.8,28.64,North,7,0.0,0.0,89,0.00,,OVC250,0.00,VWS V14.00,2013-06-25 10:11:00,
2013-06-25 05:16:00,70.2,66.8,28.64,ENE,73,0.0,0.0,89,0.00,,OVC250,0.00,VWS V14.00,2013-06-25 10:16:00,
2013-06-25 05:21:00,70.2,67.1,28.64,ENE,73,0.0,0.0,90,0.00,,OVC250,0.00,VWS V14.00,2013-06-25 10:21:00,
2013-06-25 05:26:00,70.2,67.1,28.64,ENE,73,0.0,0.0,90,0.00,,OVC250,0.00,VWS V14.00,2013-06-25 10:26:00,
2013-06-25 05:31:00,70.3,67.3,28.64,ENE,65,0.0,0.0,90,0.00,,OVC250,0.00,VWS V14.00,2013-06-25 10:31:00,
2013-06-25 05:36:00,70.3,67.3,28.64,ENE,65,0.0,0.0,90,0.00,,OVC250,0.00,VWS V14.00,2013-06-25 10:36:00,
2013-06-25 05:41:00,70.3,67.3,28.64,ENE,65,0.0,0.0,90,0.00,,OVC250,0.00,VWS V14.00,2013-06-25 10:41:00,
2013-06-25 05:46:00,70.3,67.3,28.64,East,79,0.0,3.1,90,0.00,,OVC250,0.00,VWS V14.00,2013-06-25 10:46:00,
2013-06-25 05:51:00,70.5,67.4,28.64,NE,55,0.0,2.2,90,0.00,,OVC250,0.00,VWS V14.00,2013-06-25 10:51:00,
2013-06-25 05:56:00,70.5,67.4,28.64,ENE,67,0.0,5.4,90,0.00,,OVC250,0.00,VWS V14.00,2013-06-25 10:56:00,
2013-06-25 06:01:00,70.5,67.4,28.64,ENE,67,0.0,0.0,90,0.00,,OVC250,0.00,VWS V14.00,2013-06-25 11:01:00,
2013-06-25 06:06:00,70.5,67.4,28.64,NNE,29,0.0,0.0,90,0.00,,OVC250,0.00,VWS V14.00,2013-06-25 11:06:00,
2013-06-25 06:11:00,70.5,67.4,28.64,NNE,29,0.0,0.0,90,0.00,,OVC250,0.00,VWS V14.00,2013-06-25 11:11:00,
2013-06-25 06:16:00,70.5,67.4,28.64,NNE,29,0.0,0.0,90,0.00,,OVC250,0.00,VWS V14.00,2013-06-25 11:16:00,
2013-06-25 06:21:00,70.5,67.4,28.64,NNE,29,0.0,0.0,90,0.00,,OVC250,0.00,VWS V14.00,2013-06-25 11:21:00,
2013-06-25 06:26:00,70.5,67.4,28.64,NNE,29,0.0,0.0,90,0.00,,OVC250,0.00,VWS V14.00,2013-06-25 11:26:00,
2013-06-25 06:31:00,70.5,67.4,28.64,ENE,57,0.0,0.0,90,0.00,,OVC250,0.00,VWS V14.00,2013-06-25 11:31:00,
2013-06-25 06:36:00,70.7,67.6,28.64,ENE,57,0.0,0.0,90,0.00,,OVC250,0.00,VWS V14.00,2013-06-25 11:36:00,
2013-06-25 06:41:00,70.7,67.6,28.64,ENE,57,0.0,0.0,90,0.00,,OVC250,0.00,VWS V14.00,2013-06-25 11:41:00,
2013-06-25 06:46:00,70.9,67.8,28.64,East,98,0.0,0.0,90,0.00,,OVC250,0.00,VWS V14.00,2013-06-25 11:46:00,
2013-06-25 06:51:00,70.9,67.8,28.64,ESE,103,0.0,0.0,90,0.00,,OVC250,0.00,VWS V14.00,2013-06-25 11:51:00,
2013-06-25 06:56:00,71.1,68.0,28.64,ESE,103,0.0,0.0,90,0.00,,OVC250,0.00,VWS V14.00,2013-06-25 11:56:00,
2013-06-25 07:01:00,71.2,68.2,28.64,ESE,103,0.0,0.0,90,0.00,,OVC250,0.00,VWS V14.00,2013-06-25 12:01:00,
2013-06-25 07:06:00,71.4,68.3,28.64,ESE,103,0.0,0.0,90,0.00,,OVC250,0.00,VWS V14.00,2013-06-25 12:06:00,
2013-06-25 07:11:00,71.4,68.3,28.64,ESE,111,0.0,0.0,90,0.00,,OVC250,0.00,VWS V14.00,2013-06-25 12:11:00,
2013-06-25 07:16:00,71.6,68.5,28.64,ENE,67,0.0,0.0,90,0.00,,OVC250,0.00,VWS V14.00,2013-06-25 12:16:00,
2013-06-25 07:21:00,72.0,68.9,28.64,ENE,67,0.0,0.0,90,0.00,,OVC250,0.00,VWS V14.00,2013-06-25 12:21:00,
2013-06-25 07:26:00,72.3,69.2,28.64,ENE,67,0.0,0.0,90,0.00,,OVC250,0.00,VWS V14.00,2013-06-25 12:26:00,
2013-06-25 07:31:00,72.7,69.6,28.64,SE,124,0.0,2.7,90,0.00,,OVC250,0.00,VWS V14.00,2013-06-25 12:31:00,
2013-06-25 07:36:00,73.4,70.0,28.64,SE,125,0.0,2.7,89,0.00,,OVC250,0.00,VWS V14.00,2013-06-25 12:36:00,
2013-06-25 07:41:00,73.9,70.5,28.67,SE,125,0.0,0.0,89,0.00,,OVC250,0.00,VWS V14.00,2013-06-25 12:41:00,
2013-06-25 07:46:00,74.3,70.8,28.67,SE,139,0.0,3.1,89,0.00,,OVC250,0.00,VWS V14.00,2013-06-25 12:46:00,
2013-06-25 07:51:00,74.8,71.4,28.67,SE,139,0.0,2.7,89,0.00,,OVC250,0.00,VWS V14.00,2013-06-25 12:51:00,
2013-06-25 07:56:00,75.4,71.9,28.67,SE,139,0.0,2.7,89,0.00,,OVC250,0.00,VWS V14.00,2013-06-25 12:56:00,
2013-06-25 08:01:00,75.7,72.3,28.67,ESE,107,0.0,0.0,89,0.00,,OVC170,0.00,VWS V14.00,2013-06-25 13:01:00,
2013-06-25 08:06:00,74.3,70.5,28.67,ESE,107,0.0,0.0,88,0.00,,OVC170,0.00,VWS V14.00,2013-06-25 13:06:00,
2013-06-25 08:11:00,75.4,70.9,28.67,ESE,107,0.0,0.0,86,0.00,,OVC170,0.00,VWS V14.00,2013-06-25 13:11:00,
2013-06-25 08:16:00,75.7,71.3,28.67,East,81,0.0,0.0,86,0.00,,OVC170,0.00,VWS V14.00,2013-06-25 13:16:00,
2013-06-25 08:21:00,76.1,71.3,28.67,East,81,0.0,0.0,85,0.00,,OVC170,0.00,VWS V14.00,2013-06-25 13:21:00,
2013-06-25 08:26:00,76.3,69.7,28.67,NE,34,0.0,0.0,80,0.00,,OVC170,0.00,VWS V14.00,2013-06-25 13:26:00,
2013-06-25 08:31:00,76.8,70.6,28.67,NE,34,0.0,0.0,81,0.00,,OVC170,0.00,VWS V14.00,2013-06-25 13:31:00,
2013-06-25 08:36:00,77.2,70.5,28.67,NE,34,0.0,0.0,80,0.00,,OVC170,0.00,VWS V14.00,2013-06-25 13:36:00,
2013-06-25 08:41:00,77.5,70.1,28.67,NE,34,0.0,0.0,78,0.00,,OVC170,0.00,VWS V14.00,2013-06-25 13:41:00,
2013-06-25 08:46:00,78.3,70.8,28.70,NE,34,0.0,0.0,78,0.00,,OVC170,0.00,VWS V14.00,2013-06-25 13:46:00,
2013-06-25 08:51:00,78.8,71.0,28.70,NE,34,0.0,0.0,77,0.00,,OVC170,0.00,VWS V14.00,2013-06-25 13:51:00,
2013-06-25 08:56:00,79.3,68.7,28.70,NE,34,0.0,0.0,70,0.00,,OVC170,0.00,VWS V14.00,2013-06-25 13:56:00,
2013-06-25 09:01:00,79.9,67.5,28.70,NE,34,0.0,0.0,66,0.00,,OVC150,0.00,VWS V14.00,2013-06-25 14:01:00,
2013-06-25 09:06:00,80.1,55.6,28.70,East,82,0.0,3.1,43,0.00,,OVC150,0.00,VWS V14.00,2013-06-25 14:06:00,
2013-06-25 09:11:00,80.6,52.0,28.70,ENE,78,0.0,3.1,37,0.00,,OVC150,0.00,VWS V14.00,2013-06-25 14:11:00,
2013-06-25 09:16:00,79.9,52.7,28.70,ESE,110,0.0,3.1,39,0.00,,OVC150,0.00,VWS V14.00,2013-06-25 14:16:00,
2013-06-25 09:21:00,79.2,53.5,28.70,ENE,59,0.0,0.0,41,0.00,,OVC150,0.00,VWS V14.00,2013-06-25 14:21:00,
2013-06-25 09:26:00,79.0,53.3,28.70,SSE,147,0.0,3.1,41,0.00,,OVC150,0.00,VWS V14.00,2013-06-25 14:26:00,
2013-06-25 09:31:00,79.3,53.6,28.70,NNE,28,0.0,0.0,41,0.00,,OVC150,0.00,VWS V14.00,2013-06-25 14:31:00,
2013-06-25 09:36:00,80.2,53.1,28.70,NE,56,0.0,4.9,39,0.00,,OVC150,0.00,VWS V14.00,2013-06-25 14:36:00,
2013-06-25 09:41:00,81.1,54.5,28.70,ENE,61,0.0,0.0,40,0.00,,OVC150,0.00,VWS V14.00,2013-06-25 14:41:00,
2013-06-25 09:46:00,81.9,52.3,28.70,ENE,61,0.0,0.0,36,0.00,,OVC150,0.00,VWS V14.00,2013-06-25 14:46:00,
2013-06-25 09:51:00,81.9,50.8,28.70,ESE,102,4.9,4.9,34,0.00,,OVC150,0.00,VWS V14.00,2013-06-25 14:51:00,
2013-06-25 09:56:00,82.2,51.1,28.70,ENE,57,0.0,4.9,34,0.00,,OVC150,0.00,VWS V14.00,2013-06-25 14:56:00,
2013-06-25 10:01:00,82.0,50.1,28.70,NE,36,3.6,5.8,33,0.00,,OVC250,0.00,VWS V14.00,2013-06-25 15:01:00,
2013-06-25 10:06:00,82.2,51.1,28.70,SE,142,2.7,5.8,34,0.00,,OVC250,0.00,VWS V14.00,2013-06-25 15:06:00,
2013-06-25 10:11:00,84.4,50.5,28.70,East,97,0.0,3.6,31,0.00,,OVC250,0.00,VWS V14.00,2013-06-25 15:11:00,
2013-06-25 10:16:00,85.3,50.4,28.70,ENE,77,0.0,3.6,30,0.00,,OVC250,0.00,VWS V14.00,2013-06-25 15:16:00,
2013-06-25 10:21:00,85.5,49.6,28.70,NE,47,0.0,0.0,29,0.00,,OVC250,0.00,VWS V14.00,2013-06-25 15:21:00,
2013-06-25 10:26:00,86.7,49.8,28.67,East,79,0.0,5.8,28,0.00,,OVC250,0.00,VWS V14.00,2013-06-25 15:26:00,
2013-06-25 10:31:00,87.8,49.7,28.67,NE,55,0.0,0.0,27,0.00,,OVC250,0.00,VWS V14.00,2013-06-25 15:31:00,
2013-06-25 10:36:00,87.4,50.4,28.67,ENE,69,0.0,4.0,28,0.00,,OVC250,0.00,VWS V14.00,2013-06-25 15:36:00,
2013-06-25 10:41:00,86.9,49.9,28.67,NE,51,0.0,3.6,28,0.00,,OVC250,0.00,VWS V14.00,2013-06-25 15:41:00,
2013-06-25 10:46:00,86.5,50.5,28.67,NE,42,3.1,4.0,29,0.00,,OVC250,0.00,VWS V14.00,2013-06-25 15:46:00,
2013-06-25 10:51:00,87.1,51.0,28.67,ENE,58,0.0,0.0,29,0.00,,OVC250,0.00,VWS V14.00,2013-06-25 15:51:00,
2013-06-25 10:56:00,89.2,47.8,28.67,NE,41,0.0,5.8,24,0.00,,OVC250,0.00,VWS V14.00,2013-06-25 15:56:00,
2013-06-25 11:01:00,92.1,45.3,28.67,ENE,67,0.0,4.9,20,0.00,,OVC250,0.00,VWS V14.00,2013-06-25 16:01:00,
2013-06-25 11:06:00,92.8,45.9,28.67,SE,145,2.2,6.3,20,0.00,,OVC250,0.00,VWS V14.00,2013-06-25 16:06:00,
2013-06-25 11:11:00,94.1,42.7,28.70,SE,134,5.4,7.6,17,0.00,,OVC250,0.00,VWS V14.00,2013-06-25 16:11:00,
2013-06-25 11:16:00,91.8,43.7,28.70,SE,127,3.6,7.6,19,0.00,,OVC250,0.00,VWS V14.00,2013-06-25 16:16:00,
2013-06-25 11:21:00,91.0,44.4,28.70,SE,137,3.6,3.6,20,0.00,,OVC250,0.00,VWS V14.00,2013-06-25 16:21:00,
2013-06-25 11:26:00,90.1,43.7,28.70,ESE,116,4.0,7.6,20,0.00,,OVC250,0.00,VWS V14.00,2013-06-25 16:26:00,
2013-06-25 11:31:00,88.5,46.0,28.70,SE,126,0.0,3.1,23,0.00,,OVC250,0.00,VWS V14.00,2013-06-25 16:31:00,
2013-06-25 11:36:00,88.2,46.9,28.70,SE,133,5.8,6.3,24,0.00,,OVC250,0.00,VWS V14.00,2013-06-25 16:36:00,
2013-06-25 11:41:00,87.6,47.5,28.70,SE,133,3.6,4.9,25,0.00,,OVC250,0.00,VWS V14.00,2013-06-25 16:41:00,
2013-06-25 11:46:00,87.6,48.5,28.70,SE,130,4.0,6.3,26,0.00,,OVC250,0.00,VWS V14.00,2013-06-25 16:46:00,
2013-06-25 11:51:00,89.1,47.6,28.70,SE,130,6.3,6.3,24,0.00,,OVC250,0.00,VWS V14.00,2013-06-25 16:51:00,
2013-06-25 11:56:00,90.5,45.3,28.70,SSE,152,2.7,7.2,21,0.00,,OVC250,0.00,VWS V14.00,2013-06-25 16:56:00,
2013-06-25 12:01:00,93.4,43.6,28.70,ESE,116,2.7,3.6,18,0.00,,BKN260,0.00,VWS V14.00,2013-06-25 17:01:00,
2013-06-25 12:06:00,94.6,43.1,28.70,ENE,61,3.6,6.3,17,0.00,,BKN260,0.00,VWS V14.00,2013-06-25 17:06:00,
2013-06-25 12:11:00,94.6,43.1,28.67,SE,142,5.4,11.0,17,0.00,,BKN260,0.00,VWS V14.00,2013-06-25 17:11:00,
2013-06-25 12:16:00,94.3,42.8,28.67,ESE,119,6.3,11.0,17,0.00,,BKN260,0.00,VWS V14.00,2013-06-25 17:16:00,
2013-06-25 12:21:00,94.6,43.1,28.67,ESE,119,2.2,3.6,17,0.00,,BKN260,0.00,VWS V14.00,2013-06-25 17:21:00,
2013-06-25 12:26:00,95.7,44.0,28.67,SE,129,5.4,5.8,17,0.00,,BKN260,0.00,VWS V14.00,2013-06-25 17:26:00,
2013-06-25 12:31:00,95.5,42.2,28.67,SE,140,3.1,5.8,16,0.00,,BKN260,0.00,VWS V14.00,2013-06-25 17:31:00,
2013-06-25 12:36:00,96.4,43.0,28.67,ESE,108,4.0,5.8,16,0.00,,BKN260,0.00,VWS V14.00,2013-06-25 17:36:00,
2013-06-25 12:41:00,96.1,42.7,28.67,SSE,147,4.9,5.8,16,0.00,,BKN260,0.00,VWS V14.00,2013-06-25 17:41:00,
2013-06-25 12:46:00,95.4,42.1,28.67,SE,134,3.6,5.8,16,0.00,,BKN260,0.00,VWS V14.00,2013-06-25 17:46:00,
2013-06-25 12:51:00,94.1,42.7,28.67,SE,128,4.9,6.3,17,0.00,,BKN260,0.00,VWS V14.00,2013-06-25 17:51:00,
2013-06-25 12:56:00,93.9,42.5,28.67,SE,125,3.1,7.6,17,0.00,,BKN260,0.00,VWS V14.00,2013-06-25 17:56:00,
2013-06-25 13:01:00,95.4,42.1,28.67,East,98,3.6,5.8,16,0.00,,BKN260,0.00,VWS V14.00,2013-06-25 18:01:00,
2013-06-25 13:06:00,94.5,43.0,28.67,South,172,3.1,8.7,17,0.00,,BKN260,0.00,VWS V14.00,2013-06-25 18:06:00,
2013-06-25 13:11:00,96.1,42.7,28.67,East,80,3.6,4.0,16,0.00,,BKN260,0.00,VWS V14.00,2013-06-25 18:11:00,
2013-06-25 13:16:00,96.1,42.7,28.67,ESE,120,2.7,7.6,16,0.00,,BKN260,0.00,VWS V14.00,2013-06-25 18:16:00,
2013-06-25 13:21:00,94.8,43.3,28.67,ESE,112,2.7,4.9,17,0.00,,BKN260,0.00,VWS V14.00,2013-06-25 18:21:00,
2013-06-25 13:26:00,96.6,43.1,28.67,ENE,75,2.7,7.6,16,0.00,,BKN260,0.00,VWS V14.00,2013-06-25 18:26:00,
2013-06-25 13:31:00,98.8,39.5,28.67,SE,138,2.7,3.6,13,0.00,,BKN260,0.00,VWS V14.00,2013-06-25 18:31:00,
2013-06-25 13:36:00,100.0,40.4,28.67,ENE,63,3.6,10.1,13,0.00,,BKN260,0.00,VWS V14.00,2013-06-25 18:36:00,
2013-06-25 13:41:00,100.4,38.7,28.67,SE,140,3.1,5.8,12,0.00,,BKN260,0.00,VWS V14.00,2013-06-25 18:41:00,
2013-06-25 13:46:00,99.9,40.3,28.67,SE,139,3.1,8.1,13,0.00,,BKN260,0.00,VWS V14.00,2013-06-25 18:46:00,
2013-06-25 13:51:00,99.5,40.0,28.67,ESE,123,2.2,4.0,13,0.00,,BKN260,0.00,VWS V14.00,2013-06-25 18:51:00,
2013-06-25 13:56:00,97.7,38.6,28.67,East,91,4.9,4.9,13,0.00,,BKN260,0.00,VWS V14.00,2013-06-25 18:56:00,
2013-06-25 14:01:00,98.2,39.0,28.67,NE,50,3.1,3.1,13,0.00,,BKN260,0.00,VWS V14.00,2013-06-25 19:01:00,
2013-06-25 14:06:00,97.0,38.0,28.67,SE,131,3.1,6.3,13,0.00,,BKN260,0.00,VWS V14.00,2013-06-25 19:06:00,
2013-06-25 14:11:00,98.1,38.9,28.67,ESE,115,2.2,3.1,13,0.00,,BKN260,0.00,VWS V14.00,2013-06-25 19:11:00,
2013-06-25 14:16:00,96.3,39.4,28.67,SE,136,2.7,4.5,14,0.00,,BKN260,0.00,VWS V14.00,2013-06-25 19:16:00,
2013-06-25 14:21:00,94.1,41.1,28.67,NNE,12,2.2,3.6,16,0.00,,BKN260,0.00,VWS V14.00,2013-06-25 19:21:00,
2013-06-25 14:26:00,93.2,40.4,28.64,ESE,109,2.7,5.8,16,0.00,,BKN260,0.00,VWS V14.00,2013-06-25 19:26:00,
2013-06-25 14:31:00,94.1,37.7,28.64,ENE,72,3.1,8.7,14,0.00,,BKN260,0.00,VWS V14.00,2013-06-25 19:31:00,
2013-06-25 14:36:00,95.0,38.4,28.64,SE,126,4.0,8.7,14,0.00,,BKN260,0.00,VWS V14.00,2013-06-25 19:36:00,
2013-06-25 14:41:00,97.9,38.8,28.64,SSE,147,2.7,4.0,13,0.00,,BKN260,0.00,VWS V14.00,2013-06-25 19:41:00,
2013-06-25 14:46:00,96.1,39.2,28.64,ENE,57,0.0,4.9,14,0.00,,BKN260,0.00,VWS V14.00,2013-06-25 19:46:00,
2013-06-25 14:51:00,97.9,38.8,28.64,ENE,73,3.1,3.6,13,0.00,,BKN260,0.00,VWS V14.00,2013-06-25 19:51:00,
2013-06-25 14:56:00,100.4,44.4,28.64,SE,127,2.2,6.7,15,0.00,,BKN260,0.00,VWS V14.00,2013-06-25 19:56:00,
2013-06-25 15:01:00,102.7,40.5,28.64,ESE,114,2.7,4.9,12,0.00,,BKN260,0.00,VWS V14.00,2013-06-25 20:01:00,
2013-06-25 15:06:00,99.5,40.0,28.64,SSE,150,7.6,7.6,13,0.00,,BKN260,0.00,VWS V14.00,2013-06-25 20:06:00,
2013-06-25 15:11:00,99.0,39.6,28.64,ESE,121,3.1,5.4,13,0.00,,BKN260,0.00,VWS V14.00,2013-06-25 20:11:00,
2013-06-25 15:16:00,98.8,39.5,28.64,ENE,77,2.7,5.4,13,0.00,,BKN260,0.00,VWS V14.00,2013-06-25 20:16:00,
2013-06-25 15:21:00,101.8,39.8,28.64,East,90,0.0,2.2,12,0.00,,BKN260,0.00,VWS V14.00,2013-06-25 20:21:00,
2013-06-25 15:26:00,103.3,40.9,28.64,East,82,2.7,4.9,12,0.00,,BKN260,0.00,VWS V14.00,2013-06-25 20:26:00,
2013-06-25 15:31:00,101.8,39.8,28.64,SE,140,5.8,5.8,12,0.00,,BKN260,0.00,VWS V14.00,2013-06-25 20:31:00,
2013-06-25 15:36:00,99.0,39.6,28.64,SE,128,2.7,8.7,13,0.00,,BKN260,0.00,VWS V14.00,2013-06-25 20:36:00,
2013-06-25 15:41:00,94.3,37.8,28.64,SSE,148,4.0,6.3,14,0.00,,BKN260,0.00,VWS V14.00,2013-06-25 20:41:00,
2013-06-25 15:46:00,92.5,41.4,28.64,East,85,0.0,6.3,17,0.00,,BKN260,0.00,VWS V14.00,2013-06-25 20:46:00,
2013-06-25 15:51:00,92.3,41.2,28.64,North,11,3.6,3.6,17,0.00,,BKN260,0.00,VWS V14.00,2013-06-25 20:51:00,
2013-06-25 15:56:00,91.4,40.5,28.64,NNE,29,3.6,5.4,17,0.00,,BKN260,0.00,VWS V14.00,2013-06-25 20:56:00,
2013-06-25 16:01:00,91.0,41.7,28.64,SSE,151,3.1,5.4,18,0.00,,OVC260,0.00,VWS V14.00,2013-06-25 21:01:00,
2013-06-25 16:06:00,91.2,41.8,28.64,ENE,72,0.0,5.4,18,0.00,,OVC260,0.00,VWS V14.00,2013-06-25 21:06:00,
2013-06-25 16:11:00,91.9,40.9,28.64,East,94,0.0,0.0,17,0.00,,OVC260,0.00,VWS V14.00,2013-06-25 21:11:00,
2013-06-25 16:16:00,94.8,43.3,28.64,East,92,2.7,6.3,17,0.00,,OVC260,0.00,VWS V14.00,2013-06-25 21:16:00,
2013-06-25 16:21:00,95.9,42.5,28.64,East,90,0.0,2.7,16,0.00,,OVC260,0.00,VWS V14.00,2013-06-25 21:21:00,
2013-06-25 16:26:00,98.4,44.5,28.61,East,89,0.0,4.0,16,0.00,,OVC260,0.00,VWS V14.00,2013-06-25 21:26:00,
2013-06-25 16:31:00,97.2,43.5,28.61,East,82,0.0,3.1,16,0.00,,OVC260,0.00,VWS V14.00,2013-06-25 21:31:00,
2013-06-25 16:36:00,96.6,43.1,28.61,East,90,3.1,5.8,16,0.00,,OVC260,0.00,VWS V14.00,2013-06-25 21:36:00,
2013-06-25 16:41:00,93.4,42.1,28.61,NE,50,0.0,2.2,17,0.00,,OVC260,0.00,VWS V14.00,2013-06-25 21:41:00,
2013-06-25 16:46:00,93.2,43.4,28.61,ESE,115,3.1,4.9,18,0.00,,OVC260,0.00,VWS V14.00,2013-06-25 21:46:00,
2013-06-25 16:51:00,97.5,43.8,28.61,NE,40,3.1,3.6,16,0.00,,OVC260,0.00,VWS V14.00,2013-06-25 21:51:00,
2013-06-25 16:56:00,100.9,44.8,28.61,SE,129,2.2,4.5,15,0.00,,OVC260,0.00,VWS V14.00,2013-06-25 21:56:00,
2013-06-25 17:01:00,95.7,42.4,28.61,ESE,109,4.9,4.9,16,0.00,,BKN260,0.00,VWS V14.00,2013-06-25 22:01:00,
2013-06-25 17:06:00,95.4,43.7,28.61,SE,137,3.6,6.3,17,0.00,,BKN260,0.00,VWS V14.00,2013-06-25 22:06:00,
2013-06-25 17:11:00,97.9,44.1,28.61,East,101,2.7,2.7,16,0.00,,BKN260,0.00,VWS V14.00,2013-06-25 22:11:00,
2013-06-25 17:16:00,97.5,43.8,28.61,ESE,112,4.0,5.4,16,0.00,,BKN260,0.00,VWS V14.00,2013-06-25 22:16:00,
2013-06-25 17:21:00,93.2,42.0,28.61,East,96,3.6,4.0,17,0.00,,BKN260,0.00,VWS V14.00,2013-06-25 22:21:00,
2013-06-25 17:26:00,90.3,43.8,28.61,East,98,0.0,6.3,20,0.00,,BKN260,0.00,VWS V14.00,2013-06-25 22:26:00,
2013-06-25 17:31:00,89.2,45.5,28.61,ENE,65,3.6,5.8,22,0.00,,BKN260,0.00,VWS V14.00,2013-06-25 22:31:00,
2013-06-25 17:36:00,89.8,45.9,28.61,NE,41,8.1,8.1,22,0.00,,BKN260,0.00,VWS V14.00,2013-06-25 22:36:00,
2013-06-25 17:41:00,88.7,47.3,28.61,ENE,78,3.6,3.6,24,0.00,,BKN260,0.00,VWS V14.00,2013-06-25 22:41:00,
2013-06-25 17:46:00,88.7,48.4,28.61,SE,145,0.0,5.4,25,0.00,,BKN260,0.00,VWS V14.00,2013-06-25 22:46:00,
2013-06-25 17:51:00,88.2,49.0,28.61,ESE,122,0.0,3.6,26,0.00,,BKN260,0.00,VWS V14.00,2013-06-25 22:51:00,
2013-06-25 17:56:00,87.4,50.4,28.61,ESE,122,0.0,3.6,28,0.00,,BKN260,0.00,VWS V14.00,2013-06-25 22:56:00,
2013-06-25 18:01:00,87.1,51.0,28.61,ENE,60,0.0,2.2,29,0.00,,SCT240,0.00,VWS V14.00,2013-06-25 23:01:00,
2013-06-25 18:06:00,87.1,51.0,28.61,SSE,152,0.0,2.7,29,0.00,,SCT240,0.00,VWS V14.00,2013-06-25 23:06:00,
2013-06-25 18:11:00,87.1,51.0,28.61,NE,44,0.0,3.1,29,0.00,,SCT240,0.00,VWS V14.00,2013-06-25 23:11:00,
2013-06-25 18:16:00,87.3,51.2,28.61,NE,44,0.0,3.1,29,0.00,,SCT240,0.00,VWS V14.00,2013-06-25 23:16:00,
2013-06-25 18:21:00,87.3,51.2,28.61,NE,44,0.0,0.0,29,0.00,,SCT240,0.00,VWS V14.00,2013-06-25 23:21:00,
2013-06-25 18:26:00,87.1,51.9,28.61,ENE,63,0.0,0.0,30,0.00,,SCT240,0.00,VWS V14.00,2013-06-25 23:26:00,
2013-06-25 18:31:00,86.5,51.5,28.61,ENE,67,0.0,2.2,30,0.00,,SCT240,0.00,VWS V14.00,2013-06-25 23:31:00,
2013-06-25 18:36:00,86.2,51.1,28.61,ENE,65,0.0,2.2,30,0.00,,SCT240,0.00,VWS V14.00,2013-06-25 23:36:00,
2013-06-25 18:41:00,85.8,51.7,28.61,NE,40,2.7,3.6,31,0.00,,SCT240,0.00,VWS V14.00,2013-06-25 23:41:00,
2013-06-25 18:46:00,85.1,51.1,28.61,SE,136,0.0,3.6,31,0.00,,SCT240,0.00,VWS V14.00,2013-06-25 23:46:00,
2013-06-25 18:51:00,84.6,50.6,28.61,East,89,2.7,2.7,31,0.00,,SCT240,0.00,VWS V14.00,2013-06-25 23:51:00,
2013-06-25 18:56:00,84.4,51.3,28.61,ESE,102,2.7,4.0,32,0.00,,SCT240,0.00,VWS V14.00,2013-06-25 23:56:00,
2013-06-25 19:01:00,84.0,51.8,28.61,ENE,68,2.7,2.7,33,0.00,,BKN240,0.00,VWS V14.00,2013-06-26 00:01:00,
2013-06-25 19:06:00,83.5,52.2,28.61,ENE,64,2.7,4.9,34,0.00,,BKN240,0.00,VWS V14.00,2013-06-26 00:06:00,
2013-06-25 19:11:00,83.3,52.0,28.61,ESE,111,0.0,2.2,34,0.00,,BKN240,0.00,VWS V14.00,2013-06-26 00:11:00,
2013-06-25 19:16:00,83.3,52.8,28.61,NE,37,0.0,3.6,35,0.00,,BKN240,0.00,VWS V14.00,2013-06-26 00:16:00,
2013-06-25 19:21:00,83.1,52.7,28.61,NE,47,0.0,2.2,35,0.00,,BKN240,0.00,VWS V14.00,2013-06-26 00:21:00,
2013-06-25 19:26:00,83.1,52.7,28.61,ENE,60,0.0,2.2,35,0.00,,BKN240,0.00,VWS V14.00,2013-06-26 00:26:00,
2013-06-25 19:31:00,82.9,53.3,28.61,East,98,0.0,2.7,36,0.00,,BKN240,0.00,VWS V14.00,2013-06-26 00:31:00,
2013-06-25 19:36:00,82.8,53.9,28.61,ENE,73,2.2,4.9,37,0.00,,BKN240,0.00,VWS V14.00,2013-06-26 00:36:00,
2013-06-25 19:41:00,82.6,53.7,28.61,East,79,3.6,3.6,37,0.00,,BKN240,0.00,VWS V14.00,2013-06-26 00:41:00,
2013-06-25 19:46:00,82.4,54.3,28.61,East,87,0.0,3.6,38,0.00,,BKN240,0.00,VWS V14.00,2013-06-26 00:46:00,
2013-06-25 19:51:00,82.0,54.7,28.61,SSE,151,0.0,0.0,39,0.00,,BKN240,0.00,VWS V14.00,2013-06-26 00:51:00,
2013-06-25 19:56:00,81.9,54.5,28.61,NE,40,0.0,0.0,39,0.00,,BKN240,0.00,VWS V14.00,2013-06-26 00:56:00,
2013-06-25 20:01:00,81.7,55.0,28.61,ENE,75,0.0,4.0,40,0.00,,OVC120,0.00,VWS V14.00,2013-06-26 01:01:00,
2013-06-25 20:06:00,81.7,55.0,28.61,NE,54,0.0,4.0,40,0.00,,OVC120,0.00,VWS V14.00,2013-06-26 01:06:00,
2013-06-25 20:11:00,81.5,55.5,28.61,ENE,76,0.0,4.9,41,0.00,,OVC120,0.00,VWS V14.00,2013-06-26 01:11:00,
2013-06-25 20:16:00,81.3,55.4,28.61,ENE,76,0.0,4.9,41,0.00,,OVC120,0.00,VWS V14.00,2013-06-26 01:16:00,
2013-06-25 20:21:00,81.1,55.2,28.61,East,85,0.0,0.0,41,0.00,,OVC120,0.00,VWS V14.00,2013-06-26 01:21:00,
2013-06-25 20:26:00,81.0,55.7,28.61,ENE,69,0.0,3.1,42,0.00,,OVC120,0.00,VWS V14.00,2013-06-26 01:26:00,
2013-06-25 20:31:00,80.8,56.2,28.61,East,79,0.0,0.0,43,0.00,,OVC120,0.00,VWS V14.00,2013-06-26 01:31:00,
2013-06-25 20:36:00,80.6,55.4,28.61,East,79,0.0,0.0,42,0.00,,OVC120,0.00,VWS V14.00,2013-06-26 01:36:00,
2013-06-25 20:41:00,80.4,56.5,28.61,ENE,68,0.0,3.1,44,0.00,,OVC120,0.00,VWS V14.00,2013-06-26 01:41:00,
2013-06-25 20:46:00,80.2,57.0,28.61,NE,47,4.0,4.0,45,0.00,,OVC120,0.00,VWS V14.00,2013-06-26 01:46:00,
2013-06-25 20:51:00,80.1,56.8,28.61,SE,145,0.0,0.0,45,0.00,,OVC120,0.00,VWS V14.00,2013-06-26 01:51:00,
2013-06-25 20:56:00,79.9,56.7,28.61,East,93,0.0,3.1,45,0.00,,OVC120,0.00,VWS V14.00,2013-06-26 01:56:00,
2013-06-25 21:01:00,79.9,57.3,28.61,ENE,65,0.0,0.0,46,0.00,,OVC090,0.00,VWS V14.00,2013-06-26 02:01:00,
2013-06-25 21:06:00,79.9,57.9,28.61,ENE,65,0.0,0.0,47,0.00,,OVC090,0.00,VWS V14.00,2013-06-26 02:06:00,
2013-06-25 21:11:00,79.9,57.9,28.61,NE,48,0.0,0.0,47,0.00,,OVC090,0.00,VWS V14.00,2013-06-26 02:11:00,
2013-06-25 21:16:00,79.7,58.3,28.61,ENE,72,3.6,5.4,48,0.00,,OVC090,0.00,VWS V14.00,2013-06-26 02:16:00,
2013-06-25 21:21:00,79.7,58.3,28.61,NE,39,2.2,4.5,48,0.00,,OVC090,0.00,VWS V14.00,2013-06-26 02:21:00,
2013-06-25 21:26:00,79.5,58.7,28.61,NE,39,0.0,4.5,49,0.00,,OVC090,0.00,VWS V14.00,2013-06-26 02:26:00,
2013-06-25 21:31:00,79.2,58.4,28.61,NE,39,0.0,0.0,49,0.00,,OVC090,0.00,VWS V14.00,2013-06-26 02:31:00,
2013-06-25 21:36:00,79.2,58.9,28.61,NNE,27,0.0,0.0,50,0.00,,OVC090,0.00,VWS V14.00,2013-06-26 02:36:00,
2013-06-25 21:41:00,79.0,59.3,28.61,NNE,27,0.0,0.0,51,0.00,,OVC090,0.00,VWS V14.00,2013-06-26 02:41:00,
2013-06-25 21:46:00,78.8,59.7,28.61,NE,46,0.0,3.1,52,0.00,,OVC090,0.00,VWS V14.00,2013-06-26 02:46:00,
2013-06-25 21:51:00,78.6,60.1,28.61,NE,46,0.0,0.0,53,0.00,,OVC090,0.00,VWS V14.00,2013-06-26 02:51:00,
2013-06-25 21:56:00,78.4,59.9,28.61,NE,46,0.0,0.0,53,0.00,,OVC090,0.00,VWS V14.00,2013-06-26 02:56:00,
2013-06-25 22:01:00,78.3,59.7,28.61,NE,46,0.0,0.0,53,0.00,,BKN095,0.00,VWS V14.00,2013-06-26 03:01:00,
2013-06-25 22:06:00,78.3,60.3,28.61,East,90,0.0,0.0,54,0.00,,BKN095,0.00,VWS V14.00,2013-06-26 03:06:00,
2013-06-25 22:11:00,78.1,60.1,28.61,East,92,0.0,0.0,54,0.00,,BKN095,0.00,VWS V14.00,2013-06-26 03:11:00,
2013-06-25 22:16:00,77.9,61.0,28.61,NE,39,2.2,2.7,56,0.00,,BKN095,0.00,VWS V14.00,2013-06-26 03:16:00,
2013-06-25 22:21:00,77.7,60.3,28.61,NE,39,0.0,0.0,55,0.00,,BKN095,0.00,VWS V14.00,2013-06-26 03:21:00,
2013-06-25 22:26:00,77.5,60.6,28.61,NE,39,0.0,0.0,56,0.00,,BKN095,0.00,VWS V14.00,2013-06-26 03:26:00,
2013-06-25 22:31:00,77.5,61.1,28.61,NE,39,0.0,0.0,57,0.00,,BKN095,0.00,VWS V14.00,2013-06-26 03:31:00,
2013-06-25 22:36:00,77.5,61.6,28.61,NE,39,0.0,0.0,58,0.00,,BKN095,0.00,VWS V14.00,2013-06-26 03:36:00,
2013-06-25 22:41:00,77.5,61.6,28.61,NE,55,3.6,3.6,58,0.00,,BKN095,0.00,VWS V14.00,2013-06-26 03:41:00,
2013-06-25 22:46:00,77.5,62.1,28.61,NE,53,0.0,3.6,59,0.00,,BKN095,0.00,VWS V14.00,2013-06-26 03:46:00,
2013-06-25 22:51:00,77.5,62.1,28.61,ENE,62,0.0,0.0,59,0.00,,BKN095,0.00,VWS V14.00,2013-06-26 03:51:00,
2013-06-25 22:56:00,77.4,61.9,28.61,ESE,105,0.0,0.0,59,0.00,,BKN095,0.00,VWS V14.00,2013-06-26 03:56:00,
2013-06-25 23:01:00,77.2,62.2,28.61,ENE,65,0.0,0.0,60,0.00,,SCT075,0.00,VWS V14.00,2013-06-26 04:01:00,
2013-06-25 23:06:00,77.2,61.8,28.61,ENE,76,0.0,0.0,59,0.00,,SCT075,0.00,VWS V14.00,2013-06-26 04:06:00,
2013-06-25 23:11:00,77.0,62.1,28.61,ENE,76,0.0,0.0,60,0.00,,SCT075,0.00,VWS V14.00,2013-06-26 04:11:00,
2013-06-25 23:16:00,77.2,62.7,28.61,NE,45,0.0,0.0,61,0.00,,SCT075,0.00,VWS V14.00,2013-06-26 04:16:00,
2013-06-25 23:21:00,77.2,62.7,28.61,NE,51,0.0,0.0,61,0.00,,SCT075,0.00,VWS V14.00,2013-06-26 04:21:00,
2013-06-25 23:26:00,77.2,62.2,28.59,ESE,111,0.0,4.5,60,0.00,,SCT075,0.00,VWS V14.00,2013-06-26 04:26:00,
2013-06-25 23:31:00,77.0,61.6,28.59,East,90,0.0,2.2,59,0.00,,SCT075,0.00,VWS V14.00,2013-06-26 04:31:00,
2013-06-25 23:36:00,76.8,61.9,28.59,ENE,71,0.0,2.7,60,0.00,,SCT075,0.00,VWS V14.00,2013-06-26 04:36:00,
2013-06-25 23:41:00,76.8,61.9,28.61,ESE,117,2.2,4.0,60,0.00,,SCT075,0.00,VWS V14.00,2013-06-26 04:41:00,
2013-06-25 23:46:00,77.0,61.6,28.61,ENE,61,0.0,4.0,59,0.00,,SCT075,0.00,VWS V14.00,2013-06-26 04:46:00,
2013-06-25 23:51:00,76.8,60.9,28.61,ENE,62,0.0,0.0,58,0.00,,SCT075,0.00,VWS V14.00,2013-06-26 04:51:00,
2013-06-25 23:56:00,76.6,60.8,28.59,East,86,0.0,2.7,58,0.00,,SCT075,0.00,VWS V14.00,2013-06-26 04:56:00,